Time;durP1;ratioP1;P1;durP2;ratioP2;P2;SDS_P1;SDS_P2;PMS_P1;PMS_P2;Temp;Humidity;BMP_temperature;BMP_pressure;BME280_temperature;BME280_humidity;BME280_pressure;Samples;Min_cycle;Max_cycle;Signal;HPM_P1;HPM_P2
2023/07/18 00:00:43;;;;;;;;;1.00;1.00;;;;;;;;5019612;28;28264;-92
2023/07/18 00:03:09;;;;;;;;;0.67;0.67;;;;;;;;5039460;28;28635;-92
2023/07/18 00:05:40;;;;;;;;;0.00;0.00;;;;;;;;5036743;28;28571;-92
2023/07/18 00:08:06;;;;;;;;;0.00;0.00;;;;;;;;5038101;28;28349;-91
2023/07/18 00:10:31;;;;;;;;;0.00;0.00;;;;;;;;5017187;28;28541;-92
2023/07/18 00:12:58;;;;;;;;;0.67;0.67;;;;;;;;5036639;28;28378;-91
2023/07/18 00:15:24;;;;;;;;;0.00;0.00;;;;;;;;5019452;28;29930;-92
2023/07/18 00:17:50;;;;;;;;;1.00;1.00;;;;;;;;5010475;28;28549;-92
2023/07/18 00:20:18;;;;;;;;;0.33;0.33;;;;;;;;5020055;28;28541;-92
2023/07/18 00:22:50;;;;;;;;;0.00;0.00;;;;;;;;5017531;28;28379;-92
2023/07/18 00:25:18;;;;;;;;;1.00;1.00;;;;;;;;5037779;28;29333;-91
2023/07/18 00:27:44;;;;;;;;;0.00;0.00;;;;;;;;5020168;28;28479;-92
2023/07/18 00:30:13;;;;;;;;;0.67;0.67;;;;;;;;5037255;28;28290;-92
2023/07/18 00:32:39;;;;;;;;;0.67;0.67;;;;;;;;5018086;28;28755;-91
2023/07/18 00:35:08;;;;;;;;;0.67;0.67;;;;;;;;5037924;28;28474;-92
2023/07/18 00:37:35;;;;;;;;;0.33;0.33;;;;;;;;5036081;28;28354;-91
2023/07/18 00:40:05;;;;;;;;;0.67;0.67;;;;;;;;5008833;28;28257;-91
2023/07/18 00:42:30;;;;;;;;;0.00;0.00;;;;;;;;5019842;28;29270;-91
2023/07/18 00:45:05;;;;;;;;;1.00;1.00;;;;;;;;5036687;28;29702;-92
2023/07/18 00:47:30;;;;;;;;;0.67;0.67;;;;;;;;5037047;28;28541;-91
2023/07/18 00:49:58;;;;;;;;;0.00;0.00;;;;;;;;5018820;28;28437;-92
2023/07/18 00:52:35;;;;;;;;;;;;;;;;;;;;;
2023/07/18 00:55:04;;;;;;;;;0.33;0.33;;;;;;;;5026368;28;56961;-92
2023/07/18 00:57:33;;;;;;;;;0.67;0.67;;;;;;;;5032304;28;28792;-91
2023/07/18 01:00:01;;;;;;;;;0.67;0.67;;;;;;;;5030577;28;28375;-92
2023/07/18 01:02:34;;;;;;;;;0.00;0.00;;;;;;;;5016055;28;28553;-92
2023/07/18 01:04:59;;;;;;;;;0.33;0.33;;;;;;;;5017933;28;29682;-92
2023/07/18 01:07:25;;;;;;;;;1.33;1.33;;;;;;;;5036508;28;28411;-92
2023/07/18 01:09:53;;;;;;;;;0.33;0.33;;;;;;;;5011581;28;28489;-91
2023/07/18 01:12:18;;;;;;;;;0.67;0.67;;;;;;;;5018671;28;28992;-91
2023/07/18 01:14:46;;;;;;;;;0.67;0.67;;;;;;;;5017287;28;29953;-91
2023/07/18 01:17:13;;;;;;;;;1.00;1.00;;;;;;;;5018748;28;29511;-92
2023/07/18 01:19:40;;;;;;;;;0.67;0.67;;;;;;;;5037263;28;28548;-91
2023/07/18 01:22:08;;;;;;;;;1.00;1.00;;;;;;;;5020501;28;28340;-92
2023/07/18 01:24:36;;;;;;;;;0.67;0.67;;;;;;;;5018396;28;28901;-92
2023/07/18 01:27:01;;;;;;;;;1.00;1.00;;;;;;;;5038098;28;28524;-92
2023/07/18 01:29:26;;;;;;;;;0.00;0.00;;;;;;;;5033590;28;28608;-91
2023/07/18 01:31:52;;;;;;;;;0.00;0.00;;;;;;;;5020214;28;28597;-91
2023/07/18 01:34:17;;;;;;;;;1.00;1.00;;;;;;;;5036570;28;29364;-92
2023/07/18 01:36:42;;;;;;;;;0.67;0.67;;;;;;;;5017101;28;28498;-91
2023/07/18 01:39:08;;;;;;;;;1.33;1.33;;;;;;;;5016086;28;29022;-92
2023/07/18 01:41:41;;;;;;;;;0.00;0.00;;;;;;;;5035940;28;28318;-92
2023/07/18 01:44:08;;;;;;;;;0.00;0.00;;;;;;;;5016807;28;29926;-92
2023/07/18 01:46:33;;;;;;;;;2.00;0.67;;;;;;;;5018097;28;28482;-92
2023/07/18 01:49:01;;;;;;;;;1.00;1.00;;;;;;;;5049348;28;28554;-91
2023/07/18 01:51:29;;;;;;;;;0.67;0.67;;;;;;;;5020479;28;28344;-91
2023/07/18 01:53:56;;;;;;;;;0.33;0.33;;;;;;;;5040847;28;28782;-92
2023/07/18 01:56:22;;;;;;;;;1.67;1.67;;;;;;;;5035016;28;29337;-91
2023/07/18 01:58:47;;;;;;;;;0.33;0.33;;;;;;;;5012550;28;28423;-92
2023/07/18 02:01:13;;;;;;;;;1.00;1.00;;;;;;;;5009038;28;28506;-91
2023/07/18 02:03:38;;;;;;;;;2.33;1.00;;;;;;;;5013856;28;30856;-92
2023/07/18 02:06:12;;;;;;;;;1.00;1.00;;;;;;;;5036898;28;28299;-91
2023/07/18 02:08:39;;;;;;;;;0.67;0.67;;;;;;;;5034146;28;28448;-91
2023/07/18 02:11:04;;;;;;;;;1.00;1.00;;;;;;;;5018889;28;28454;-92
2023/07/18 02:13:30;;;;;;;;;1.67;1.67;;;;;;;;5017741;28;29746;-92
2023/07/18 02:15:57;;;;;;;;;0.00;0.00;;;;;;;;5035744;28;28484;-91
2023/07/18 02:18:23;;;;;;;;;1.00;1.00;;;;;;;;5010032;28;28356;-91
2023/07/18 02:20:48;;;;;;;;;0.00;0.00;;;;;;;;5036690;28;28223;-91
2023/07/18 02:23:13;;;;;;;;;1.00;1.00;;;;;;;;5035714;28;28744;-91
2023/07/18 02:25:38;;;;;;;;;0.67;0.67;;;;;;;;5021204;28;28610;-91
2023/07/18 02:28:07;;;;;;;;;1.00;1.00;;;;;;;;5023308;28;28589;-92
2023/07/18 02:30:35;;;;;;;;;2.00;2.00;;;;;;;;5033793;28;28493;-91
2023/07/18 02:33:00;;;;;;;;;1.00;1.00;;;;;;;;5014748;28;29906;-91
2023/07/18 02:35:26;;;;;;;;;0.33;0.33;;;;;;;;5033194;28;28232;-91
2023/07/18 02:37:56;;;;;;;;;0.67;0.67;;;;;;;;5014763;28;28451;-91
2023/07/18 02:40:21;;;;;;;;;1.33;1.33;;;;;;;;5016485;28;28550;-92
2023/07/18 02:42:47;;;;;;;;;1.00;1.00;;;;;;;;5036490;28;28484;-91
2023/07/18 02:45:12;;;;;;;;;1.00;1.00;;;;;;;;5018014;28;28542;-91
2023/07/18 02:47:37;;;;;;;;;1.00;1.00;;;;;;;;5017273;28;28628;-91
2023/07/18 02:50:03;;;;;;;;;2.00;2.00;;;;;;;;5034783;28;28429;-91
2023/07/18 02:52:28;;;;;;;;;1.00;1.00;;;;;;;;5019779;28;28607;-91
2023/07/18 02:54:53;;;;;;;;;0.67;0.67;;;;;;;;5035916;28;28362;-92
2023/07/18 02:57:19;;;;;;;;;2.33;1.00;;;;;;;;5029991;28;28309;-92
2023/07/18 02:59:44;;;;;;;;;3.00;2.67;;;;;;;;4999385;28;28568;-91
2023/07/18 03:02:10;;;;;;;;;2.00;2.00;;;;;;;;5035570;28;28337;-91
2023/07/18 03:04:35;;;;;;;;;1.00;1.00;;;;;;;;5037207;28;28299;-91
2023/07/18 03:07:01;;;;;;;;;1.00;1.00;;;;;;;;5034657;28;28663;-91
2023/07/18 03:09:27;;;;;;;;;1.00;1.00;;;;;;;;5026612;28;28267;-91
2023/07/18 03:11:52;;;;;;;;;1.00;1.00;;;;;;;;5018472;28;29846;-91
2023/07/18 03:14:18;;;;;;;;;1.00;1.00;;;;;;;;5019842;28;28511;-91
2023/07/18 03:16:43;;;;;;;;;2.00;2.00;;;;;;;;5021587;28;28419;-91
2023/07/18 03:19:09;;;;;;;;;1.33;1.33;;;;;;;;5036466;28;28267;-92
2023/07/18 03:21:34;;;;;;;;;2.00;2.00;;;;;;;;5036192;28;28534;-91
2023/07/18 03:24:00;;;;;;;;;1.00;1.00;;;;;;;;5039120;28;28323;-91
2023/07/18 03:26:25;;;;;;;;;3.00;3.00;;;;;;;;5037484;28;28560;-91
2023/07/18 03:28:50;;;;;;;;;2.00;2.00;;;;;;;;5038122;28;28588;-91
2023/07/18 03:31:18;;;;;;;;;1.00;1.00;;;;;;;;5019921;28;30402;-91
2023/07/18 03:33:43;;;;;;;;;2.00;2.00;;;;;;;;5020341;28;28359;-91
2023/07/18 03:36:08;;;;;;;;;2.00;2.00;;;;;;;;5020458;28;28662;-91
2023/07/18 03:38:37;;;;;;;;;2.00;2.00;;;;;;;;5019895;28;28601;-91
2023/07/18 03:41:02;;;;;;;;;3.00;3.00;;;;;;;;5019680;28;28834;-91
2023/07/18 03:43:28;;;;;;;;;2.67;2.00;;;;;;;;5038290;28;28274;-92
2023/07/18 03:45:53;;;;;;;;;1.00;1.00;;;;;;;;5035025;28;28260;-91
2023/07/18 03:48:18;;;;;;;;;2.00;2.00;;;;;;;;5019703;28;28341;-91
2023/07/18 03:50:46;;;;;;;;;3.33;3.33;;;;;;;;5035198;28;28552;-91
2023/07/18 03:53:11;;;;;;;;;1.33;1.33;;;;;;;;5020720;28;28618;-91
2023/07/18 03:55:36;;;;;;;;;3.00;3.00;;;;;;;;5038212;28;28462;-92
2023/07/18 03:58:02;;;;;;;;;2.67;2.67;;;;;;;;5054178;28;8800;-91
2023/07/18 04:00:27;;;;;;;;;3.00;3.00;;;;;;;;5050858;28;8875;-91
2023/07/18 04:02:53;;;;;;;;;2.00;2.00;;;;;;;;5055503;28;9616;-92
2023/07/18 04:05:18;;;;;;;;;3.33;3.00;;;;;;;;5048560;28;9233;-92
2023/07/18 04:07:44;;;;;;;;;2.00;2.00;;;;;;;;5038490;28;8803;-91
2023/07/18 04:10:11;;;;;;;;;2.00;2.00;;;;;;;;5054195;28;8807;-91
2023/07/18 04:12:37;;;;;;;;;3.00;3.00;;;;;;;;5039004;28;8917;-92
2023/07/18 04:15:02;;;;;;;;;4.00;4.00;;;;;;;;5054376;28;8988;-91
2023/07/18 04:17:27;;;;;;;;;3.00;3.00;;;;;;;;5038669;28;8839;-92
2023/07/18 04:19:57;;;;;;;;;3.67;3.67;;;;;;;;5049572;28;22429;-91
2023/07/18 04:22:22;;;;;;;;;3.50;3.50;;;;;;;;5056326;28;8812;-92
2023/07/18 04:24:48;;;;;;;;;3.00;3.00;;;;;;;;5038631;28;8965;-92
2023/07/18 04:27:13;;;;;;;;;3.00;3.00;;;;;;;;5039099;28;8810;-91
2023/07/18 04:29:38;;;;;;;;;2.33;2.33;;;;;;;;5056996;28;8835;-92
2023/07/18 04:32:04;;;;;;;;;2.67;2.67;;;;;;;;5056611;28;8830;-92
2023/07/18 04:34:29;;;;;;;;;3.33;3.33;;;;;;;;5051437;28;8787;-92
2023/07/18 04:36:55;;;;;;;;;3.00;3.00;;;;;;;;5038418;28;22435;-91
2023/07/18 04:39:20;;;;;;;;;1.33;1.33;;;;;;;;5036276;28;8827;-91
2023/07/18 04:41:46;;;;;;;;;1.67;1.67;;;;;;;;5037357;28;9552;-91
2023/07/18 04:44:11;;;;;;;;;3.00;3.00;;;;;;;;5053695;28;8803;-91
2023/07/18 04:46:44;;;;;;;;;2.00;2.00;;;;;;;;5029842;28;28560;-91
2023/07/18 04:49:09;;;;;;;;;2.67;2.67;;;;;;;;5030269;28;756994;-91
2023/07/18 04:51:37;;;;;;;;;1.33;1.33;;;;;;;;5036522;28;8859;-91
2023/07/18 04:54:02;;;;;;;;;0.75;0.75;;;;;;;;5055370;28;8885;-92
2023/07/18 04:56:28;;;;;;;;;1.33;1.33;;;;;;;;5055622;28;8835;-91
2023/07/18 04:58:53;;;;;;;;;1.33;1.33;;;;;;;;5030164;28;28356;-92
2023/07/18 05:01:18;;;;;;;;;2.33;2.33;;;;;;;;5019999;28;28563;-91
2023/07/18 05:03:46;;;;;;;;;1.67;1.67;;;;;;;;5037946;28;28252;-91
2023/07/18 05:06:11;;;;;;;;;1.67;1.67;;;;;;;;5014801;28;28423;-92
2023/07/18 05:08:37;;;;;;;;;1.00;1.00;;;;;;;;5034438;28;28504;-91
2023/07/18 05:11:02;;;;;;;;;2.00;2.00;;;;;;;;5040186;28;27855;-92
2023/07/18 05:13:30;;;;;;;;;1.00;1.00;;;;;;;;5035774;28;28319;-91
2023/07/18 05:16:00;;;;;;;;;1.00;1.00;;;;;;;;5014408;28;28374;-92
2023/07/18 05:18:25;;;;;;;;;1.67;1.67;;;;;;;;5035224;28;28822;-91
2023/07/18 05:20:53;;;;;;;;;1.33;1.33;;;;;;;;5016387;28;28560;-92
2023/07/18 05:23:18;;;;;;;;;1.67;1.67;;;;;;;;5035870;28;28497;-92
2023/07/18 05:25:43;;;;;;;;;3.67;2.67;;;;;;;;5036804;28;28636;-91
2023/07/18 05:28:09;;;;;;;;;1.00;1.00;;;;;;;;5036430;28;28581;-92
2023/07/18 05:30:34;;;;;;;;;0.00;0.00;;;;;;;;5034632;28;28568;-92
2023/07/18 05:32:59;;;;;;;;;1.00;1.00;;;;;;;;5016623;28;28355;-92
2023/07/18 05:35:24;;;;;;;;;1.00;1.00;;;;;;;;5018112;28;29385;-91
2023/07/18 05:37:50;;;;;;;;;0.67;0.67;;;;;;;;5038066;28;28279;-91
2023/07/18 05:40:25;;;;;;;;;1.00;1.00;;;;;;;;5032337;28;28562;-91
2023/07/18 05:42:51;;;;;;;;;1.33;1.33;;;;;;;;5034322;28;28345;-92
2023/07/18 05:45:16;;;;;;;;;1.00;1.00;;;;;;;;5035242;28;28225;-91
2023/07/18 05:47:42;;;;;;;;;0.67;0.67;;;;;;;;5036873;28;28479;-92
2023/07/18 05:50:10;;;;;;;;;1.67;1.67;;;;;;;;5016240;28;28536;-92
2023/07/18 05:52:35;;;;;;;;;2.00;1.00;;;;;;;;5016788;28;28529;-91
2023/07/18 05:55:00;;;;;;;;;1.00;1.00;;;;;;;;5036334;28;24727;-92
2023/07/18 05:57:26;;;;;;;;;1.67;1.67;;;;;;;;5055846;28;8827;-92
2023/07/18 05:59:51;;;;;;;;;1.00;1.00;;;;;;;;5031933;28;8831;-91
2023/07/18 06:02:19;;;;;;;;;0.67;0.67;;;;;;;;5030839;28;8857;-92
2023/07/18 06:04:44;;;;;;;;;2.00;2.00;;;;;;;;5029582;28;8840;-92
2023/07/18 06:07:12;;;;;;;;;0.67;0.67;;;;;;;;5059274;28;8855;-92
2023/07/18 06:09:38;;;;;;;;;2.00;0.00;;;;;;;;5051943;28;8821;-92
2023/07/18 06:12:06;;;;;;;;;1.00;1.00;;;;;;;;5050755;28;8831;-92
2023/07/18 06:17:25;;;;;;;;;1.00;1.00;;;;;;;;5059892;28;8874;-92
2023/07/18 06:19:58;;;;;;;;;1.50;1.50;;;;;;;;5054442;28;8818;-92
2023/07/18 06:22:25;;;;;;;;;1.00;1.00;;;;;;;;5040423;28;8956;-92
2023/07/18 06:24:53;;;;;;;;;1.00;1.00;;;;;;;;5053224;28;8840;-92
2023/07/18 06:27:44;;;;;;;;;0.25;0.25;;;;;;;;5037619;28;8831;-92
2023/07/18 06:30:12;;;;;;;;;1.25;1.25;;;;;;;;5051000;28;8993;-92
2023/07/18 06:32:53;;;;;;;;;;;;;;;;;;;;;
2023/07/18 06:35:38;;;;;;;;;;;;;;;;;;;;;
2023/07/18 06:38:08;;;;;;;;;2.00;2.00;;;;;;;;5052322;28;36056;-92
2023/07/18 06:44:14;;;;;;;;;;;;;;;;;;;;;
2023/07/18 06:47:25;;;;;;;;;;;;;;;;;;;;;
2023/07/18 06:50:16;;;;;;;;;;;;;;;;;;;;;
2023/07/18 06:53:02;;;;;;;;;1.00;1.00;;;;;;;;5063383;28;36060;-92
2023/07/18 06:55:33;;;;;;;;;1.00;1.00;;;;;;;;5037391;28;8906;-92
2023/07/18 07:01:14;;;;;;;;;0.00;0.00;;;;;;;;5049897;28;8917;-92
2023/07/18 07:04:19;;;;;;;;;;;;;;;;;;;;;
2023/07/18 07:13:04;;;;;;;;;;;;;;;;;;;;;
2023/07/18 07:15:17;;;;;;;;;0.50;0.50;;;;;;;;5046227;28;9736;-94
2023/07/18 07:17:42;;;;;;;;;0.00;0.00;;;;;;;;5047115;28;8820;-92
2023/07/18 07:20:12;;;;;;;;;1.00;1.00;;;;;;;;5042732;28;8813;-93
2023/07/18 07:22:37;;;;;;;;;0.00;0.00;;;;;;;;5031539;28;8815;-92
2023/07/18 07:25:03;;;;;;;;;1.67;1.33;;;;;;;;5050702;28;8913;-93
2023/07/18 07:27:28;;;;;;;;;0.00;0.00;;;;;;;;5033811;28;8795;-92
2023/07/18 07:29:53;;;;;;;;;1.00;1.00;;;;;;;;5096841;23;8919;-93
2023/07/18 07:35:25;;;;;;;;;0.00;0.00;;;;;;;;5657965;23;8833;-94
2023/07/18 07:43:00;;;;;;;;;0.00;0.00;;;;;;;;5191212;23;28791;-93
2023/07/18 07:45:26;;;;;;;;;1.00;1.00;;;;;;;;5031722;28;28725;-92
2023/07/18 08:06:45;;;;;;;;;;;;;;;;;;;;;
2023/07/18 08:09:42;;;;;;;;;;;;;;;;;;;;;
2023/07/18 08:12:12;;;;;;;;;0.25;0.25;;;;;;;;5044788;28;35841;-96
2023/07/18 08:14:38;;;;;;;;;0.00;0.00;;;;;;;;5036963;28;8823;-96
2023/07/18 08:17:03;;;;;;;;;0.00;0.00;;;;;;;;5058446;28;8808;-96
2023/07/18 08:19:28;;;;;;;;;0.67;0.33;;;;;;;;5060253;28;8846;-95
2023/07/18 08:21:54;;;;;;;;;0.00;0.00;;;;;;;;5040590;28;8839;-96
2023/07/18 08:24:20;;;;;;;;;0.00;0.00;;;;;;;;5036900;28;8861;-95
2023/07/18 08:26:45;;;;;;;;;0.33;0.33;;;;;;;;5052049;28;8843;-96
2023/07/18 08:29:10;;;;;;;;;0.00;0.00;;;;;;;;5045898;28;8794;-95
2023/07/18 08:31:35;;;;;;;;;0.67;0.67;;;;;;;;5031744;28;8827;-92
2023/07/18 08:34:01;;;;;;;;;1.00;1.00;;;;;;;;5049056;28;8918;-92
2023/07/18 08:36:26;;;;;;;;;1.33;1.00;;;;;;;;5047658;28;9842;-92
2023/07/18 08:38:51;;;;;;;;;0.00;0.00;;;;;;;;5063590;28;8836;-92
2023/07/18 08:41:26;;;;;;;;;0.67;0.67;;;;;;;;5036460;28;8854;-92
2023/07/18 08:43:52;;;;;;;;;0.75;0.75;;;;;;;;5033699;28;27706;-92
2023/07/18 08:46:17;;;;;;;;;0.00;0.00;;;;;;;;5056420;28;8869;-92
2023/07/18 08:48:45;;;;;;;;;0.00;0.00;;;;;;;;5030408;28;27829;-92
2023/07/18 08:51:11;;;;;;;;;0.00;0.00;;;;;;;;5036814;28;28650;-92
2023/07/18 08:53:40;;;;;;;;;0.00;0.00;;;;;;;;5037272;28;28413;-92
2023/07/18 08:56:05;;;;;;;;;0.00;0.00;;;;;;;;5021188;28;28287;-92
2023/07/18 08:58:31;;;;;;;;;0.00;0.00;;;;;;;;5033851;28;28384;-92
2023/07/18 09:00:57;;;;;;;;;0.00;0.00;;;;;;;;5019105;28;28457;-92
2023/07/18 09:03:22;;;;;;;;;0.67;0.00;;;;;;;;5035072;28;28462;-93
2023/07/18 09:05:47;;;;;;;;;0.00;0.00;;;;;;;;5055276;28;27991;-92
2023/07/18 09:08:13;;;;;;;;;0.00;0.00;;;;;;;;5041358;28;8945;-92
2023/07/18 09:10:38;;;;;;;;;0.00;0.00;;;;;;;;5063219;28;8883;-92
2023/07/18 09:13:04;;;;;;;;;0.00;0.00;;;;;;;;5055389;28;8855;-92
2023/07/18 09:15:32;;;;;;;;;0.00;0.00;;;;;;;;5063824;28;8923;-92
2023/07/18 09:17:58;;;;;;;;;0.00;0.00;;;;;;;;5056598;28;8814;-92
2023/07/18 09:20:25;;;;;;;;;0.00;0.00;;;;;;;;5054716;28;9728;-92
2023/07/18 09:22:53;;;;;;;;;0.00;0.00;;;;;;;;5054667;28;8899;-92
2023/07/18 09:25:18;;;;;;;;;0.00;0.00;;;;;;;;5056411;28;8795;-92
2023/07/18 09:27:43;;;;;;;;;0.00;0.00;;;;;;;;5047538;28;28449;-92
2023/07/18 09:30:09;;;;;;;;;0.00;0.00;;;;;;;;5037611;28;28419;-92
2023/07/18 09:32:35;;;;;;;;;0.00;0.00;;;;;;;;5036121;28;28442;-92
2023/07/18 09:35:00;;;;;;;;;0.00;0.00;;;;;;;;5038813;28;35447;-93
2023/07/18 09:37:26;;;;;;;;;0.00;0.00;;;;;;;;5034975;28;42543;-93
2023/07/18 09:39:52;;;;;;;;;0.00;0.00;;;;;;;;5018496;28;28615;-93
2023/07/18 09:42:18;;;;;;;;;0.00;0.00;;;;;;;;5030280;28;28380;-92
2023/07/18 09:44:50;;;;;;;;;0.00;0.00;;;;;;;;5019171;28;29504;-92
2023/07/18 09:47:16;;;;;;;;;0.00;0.00;;;;;;;;5043229;28;28508;-93
2023/07/18 09:49:45;;;;;;;;;0.00;0.00;;;;;;;;5018468;28;28499;-93
2023/07/18 09:52:10;;;;;;;;;0.00;0.00;;;;;;;;5037210;28;29784;-93
2023/07/18 09:54:37;;;;;;;;;0.00;0.00;;;;;;;;5037946;28;28382;-93
2023/07/18 09:57:03;;;;;;;;;0.00;0.00;;;;;;;;5036753;28;28419;-93
2023/07/18 09:59:29;;;;;;;;;0.00;0.00;;;;;;;;5017961;28;28731;-93
2023/07/18 10:01:54;;;;;;;;;0.00;0.00;;;;;;;;5018822;28;30018;-92
2023/07/18 10:04:20;;;;;;;;;0.00;0.00;;;;;;;;5031828;28;28493;-93
2023/07/18 10:06:46;;;;;;;;;0.00;0.00;;;;;;;;5035045;28;28937;-93
2023/07/18 10:09:12;;;;;;;;;0.00;0.00;;;;;;;;5040830;28;28486;-93
2023/07/18 10:11:56;;;;;;;;;0.00;0.00;;;;;;;;5025371;28;29705;-94
2023/07/18 10:14:21;;;;;;;;;0.00;0.00;;;;;;;;5033524;28;28370;-94
2023/07/18 10:16:52;;;;;;;;;0.00;0.00;;;;;;;;5036282;28;28222;-94
2023/07/18 10:19:19;;;;;;;;;0.00;0.00;;;;;;;;5036578;28;28799;-93
2023/07/18 10:21:45;;;;;;;;;0.00;0.00;;;;;;;;5021704;28;30890;-93
2023/07/18 10:24:20;;;;;;;;;0.00;0.00;;;;;;;;5024587;28;28582;-93
2023/07/18 10:26:51;;;;;;;;;0.00;0.00;;;;;;;;5038333;28;28481;-94
2023/07/18 10:29:16;;;;;;;;;0.00;0.00;;;;;;;;5033616;28;28553;-94
2023/07/18 10:31:41;;;;;;;;;0.00;0.00;;;;;;;;5016829;28;29603;-95
2023/07/18 10:34:09;;;;;;;;;0.00;0.00;;;;;;;;5015376;28;28728;-94
2023/07/18 10:36:35;;;;;;;;;0.00;0.00;;;;;;;;5016479;28;28497;-95
2023/07/18 10:39:06;;;;;;;;;0.00;0.00;;;;;;;;5035505;28;28556;-95
2023/07/18 10:41:31;;;;;;;;;0.00;0.00;;;;;;;;5036601;28;28486;-95
2023/07/18 10:43:56;;;;;;;;;0.00;0.00;;;;;;;;5035480;28;28303;-94
2023/07/18 10:46:21;;;;;;;;;0.00;0.00;;;;;;;;5033924;28;28390;-94
2023/07/18 10:48:50;;;;;;;;;0.00;0.00;;;;;;;;5018713;28;28557;-93
2023/07/18 10:51:15;;;;;;;;;0.00;0.00;;;;;;;;5017131;28;31213;-94
2023/07/18 10:53:42;;;;;;;;;0.00;0.00;;;;;;;;5017837;28;28723;-95
2023/07/18 10:56:18;;;;;;;;;0.00;0.00;;;;;;;;5034624;28;28299;-94
2023/07/18 10:58:44;;;;;;;;;0.00;0.00;;;;;;;;5035134;28;28510;-94
2023/07/18 11:01:09;;;;;;;;;0.00;0.00;;;;;;;;5035990;28;28436;-95
2023/07/18 11:03:35;;;;;;;;;0.00;0.00;;;;;;;;5017967;28;28373;-95
2023/07/18 11:06:04;;;;;;;;;0.00;0.00;;;;;;;;5036069;28;28250;-95
2023/07/18 11:08:30;;;;;;;;;0.00;0.00;;;;;;;;5017605;28;28621;-95
2023/07/18 11:11:00;;;;;;;;;0.33;0.33;;;;;;;;5035036;28;28407;-95
2023/07/18 11:13:28;;;;;;;;;0.00;0.00;;;;;;;;5016674;28;29140;-95
2023/07/18 11:15:56;;;;;;;;;0.00;0.00;;;;;;;;5036114;28;28484;-95
2023/07/18 11:18:21;;;;;;;;;0.00;0.00;;;;;;;;5024271;28;28469;-94
2023/07/18 11:20:47;;;;;;;;;0.00;0.00;;;;;;;;5016888;28;29679;-94
2023/07/18 11:23:12;;;;;;;;;0.00;0.00;;;;;;;;5035544;28;28593;-95
2023/07/18 11:25:38;;;;;;;;;0.33;0.33;;;;;;;;5047644;28;28251;-94
2023/07/18 11:28:03;;;;;;;;;0.00;0.00;;;;;;;;5060311;28;28382;-94
2023/07/18 11:30:30;;;;;;;;;0.00;0.00;;;;;;;;5039457;28;28539;-95
2023/07/18 11:32:56;;;;;;;;;0.33;0.33;;;;;;;;5044907;28;28342;-94
2023/07/18 11:35:22;;;;;;;;;0.33;0.33;;;;;;;;5045114;28;28307;-95
2023/07/18 11:37:51;;;;;;;;;0.00;0.00;;;;;;;;5048641;28;28512;-95
2023/07/18 11:40:25;;;;;;;;;0.00;0.00;;;;;;;;5039065;28;28497;-94
2023/07/18 11:42:50;;;;;;;;;0.00;0.00;;;;;;;;5039070;28;28410;-94
2023/07/18 11:45:16;;;;;;;;;0.00;0.00;;;;;;;;5039577;28;28306;-95
2023/07/18 11:47:43;;;;;;;;;0.00;0.00;;;;;;;;5020795;28;28435;-94
2023/07/18 11:50:09;;;;;;;;;0.00;0.00;;;;;;;;5038706;28;29384;-94
2023/07/18 11:52:35;;;;;;;;;0.33;0.33;;;;;;;;5020521;28;28456;-95
2023/07/18 11:55:00;;;;;;;;;1.00;1.00;;;;;;;;5038919;28;28284;-94
2023/07/18 11:57:25;;;;;;;;;1.00;1.00;;;;;;;;5037507;28;28490;-94
2023/07/18 11:59:51;;;;;;;;;0.00;0.00;;;;;;;;5037945;28;28480;-94
2023/07/18 12:02:16;;;;;;;;;1.00;1.00;;;;;;;;5019831;28;28422;-94
2023/07/18 12:04:41;;;;;;;;;0.00;0.00;;;;;;;;5037607;28;28643;-95
2023/07/18 12:07:06;;;;;;;;;0.00;0.00;;;;;;;;5030700;28;28503;-94
2023/07/18 12:09:32;;;;;;;;;0.00;0.00;;;;;;;;5055998;28;28298;-94
2023/07/18 12:11:57;;;;;;;;;0.00;0.00;;;;;;;;5019787;28;28476;-94
2023/07/18 12:14:22;;;;;;;;;0.00;0.00;;;;;;;;5039216;28;28431;-94
2023/07/18 12:16:47;;;;;;;;;0.00;0.00;;;;;;;;5038680;28;28416;-94
2023/07/18 12:19:13;;;;;;;;;0.00;0.00;;;;;;;;5052363;28;28417;-94
2023/07/18 12:21:38;;;;;;;;;0.00;0.00;;;;;;;;5041510;28;28498;-94
2023/07/18 12:24:04;;;;;;;;;0.00;0.00;;;;;;;;5044111;28;28323;-94
2023/07/18 12:26:29;;;;;;;;;1.00;1.00;;;;;;;;5039603;28;28520;-94
2023/07/18 12:28:54;;;;;;;;;0.00;0.00;;;;;;;;5037985;28;28456;-95
2023/07/18 12:31:20;;;;;;;;;0.67;0.67;;;;;;;;5021356;28;28383;-95
2023/07/18 12:33:45;;;;;;;;;0.00;0.00;;;;;;;;5039305;28;28266;-94
2023/07/18 12:36:12;;;;;;;;;0.00;0.00;;;;;;;;5038070;28;28394;-94
2023/07/18 12:38:37;;;;;;;;;0.00;0.00;;;;;;;;5023401;28;29918;-94
2023/07/18 12:41:02;;;;;;;;;1.00;1.00;;;;;;;;5038753;28;28657;-94
2023/07/18 12:43:27;;;;;;;;;1.00;1.00;;;;;;;;5033715;28;30103;-94
2023/07/18 12:45:54;;;;;;;;;0.00;0.00;;;;;;;;5057715;28;8857;-93
2023/07/18 12:48:19;;;;;;;;;0.00;0.00;;;;;;;;5058373;28;8796;-93
2023/07/18 12:50:44;;;;;;;;;0.00;0.00;;;;;;;;5055186;28;8803;-94
2023/07/18 12:53:09;;;;;;;;;1.00;1.00;;;;;;;;5056725;28;8838;-94
2023/07/18 12:55:35;;;;;;;;;0.00;0.00;;;;;;;;5055989;28;8830;-94
2023/07/18 12:58:00;;;;;;;;;0.00;0.00;;;;;;;;5038535;28;8819;-94
2023/07/18 13:00:25;;;;;;;;;0.00;0.00;;;;;;;;5056347;28;8853;-94
2023/07/18 13:02:51;;;;;;;;;1.00;1.00;;;;;;;;5056581;28;8881;-94
2023/07/18 13:05:16;;;;;;;;;0.00;0.00;;;;;;;;5030770;28;8838;-94
2023/07/18 13:07:42;;;;;;;;;1.00;1.00;;;;;;;;5032029;28;9566;-96
2023/07/18 13:10:07;;;;;;;;;1.00;1.00;;;;;;;;5035842;28;9640;-95
2023/07/18 13:12:32;;;;;;;;;0.00;0.00;;;;;;;;5049076;28;8909;-94
2023/07/18 13:14:58;;;;;;;;;0.00;0.00;;;;;;;;5052077;28;8833;-95
2023/07/18 13:17:23;;;;;;;;;1.00;1.00;;;;;;;;5052728;28;8811;-96
2023/07/18 13:19:48;;;;;;;;;0.67;0.67;;;;;;;;5049072;28;8859;-94
2023/07/18 13:22:13;;;;;;;;;0.00;0.00;;;;;;;;5050710;28;8819;-94
2023/07/18 13:24:39;;;;;;;;;0.33;0.33;;;;;;;;5048627;28;8808;-94
2023/07/18 13:27:04;;;;;;;;;0.00;0.00;;;;;;;;5047407;28;8993;-94
2023/07/18 13:29:30;;;;;;;;;0.00;0.00;;;;;;;;5048239;28;9001;-94
2023/07/18 13:31:55;;;;;;;;;0.00;0.00;;;;;;;;5046180;28;8799;-94
2023/07/18 13:34:21;;;;;;;;;0.00;0.00;;;;;;;;5053337;28;8821;-94
2023/07/18 13:36:47;;;;;;;;;0.75;0.75;;;;;;;;5052641;28;8818;-94
2023/07/18 13:39:12;;;;;;;;;0.00;0.00;;;;;;;;5049566;28;8837;-94
2023/07/18 13:41:37;;;;;;;;;0.67;0.67;;;;;;;;5051357;28;8827;-93
2023/07/18 13:44:02;;;;;;;;;0.00;0.00;;;;;;;;5022237;28;8822;-94
2023/07/18 13:46:28;;;;;;;;;0.00;0.00;;;;;;;;5054011;28;8835;-94
2023/07/18 13:48:54;;;;;;;;;0.00;0.00;;;;;;;;5052014;28;8822;-93
2023/07/18 13:51:19;;;;;;;;;1.00;0.00;;;;;;;;5034803;28;8968;-95
2023/07/18 13:53:44;;;;;;;;;0.00;0.00;;;;;;;;5039990;28;8926;-94
2023/07/18 13:56:10;;;;;;;;;0.00;0.00;;;;;;;;5049683;28;8944;-94
2023/07/18 13:58:35;;;;;;;;;0.00;0.00;;;;;;;;5050990;28;8788;-94
2023/07/18 14:01:01;;;;;;;;;0.00;0.00;;;;;;;;5055895;28;8900;-95
2023/07/18 14:03:26;;;;;;;;;0.00;0.00;;;;;;;;5052077;28;8837;-94
2023/07/18 14:05:53;;;;;;;;;0.00;0.00;;;;;;;;5059918;28;8825;-94
2023/07/18 14:08:18;;;;;;;;;0.00;0.00;;;;;;;;5046128;28;8788;-95
2023/07/18 14:10:44;;;;;;;;;0.00;0.00;;;;;;;;5050358;28;8795;-94
2023/07/18 14:13:09;;;;;;;;;0.67;0.67;;;;;;;;5052510;28;8948;-94
2023/07/18 14:15:34;;;;;;;;;1.00;1.00;;;;;;;;5051381;28;8827;-94
2023/07/18 14:18:00;;;;;;;;;0.00;0.00;;;;;;;;5034764;28;8857;-94
2023/07/18 14:20:25;;;;;;;;;1.00;1.00;;;;;;;;4900906;28;4208317;-94
2023/07/18 14:22:50;;;;;;;;;0.00;0.00;;;;;;;;5035092;28;28706;-95
2023/07/18 14:25:16;;;;;;;;;0.00;0.00;;;;;;;;5037426;28;29442;-95
2023/07/18 14:27:44;;;;;;;;;0.00;0.00;;;;;;;;5032281;28;28334;-95
2023/07/18 14:30:09;;;;;;;;;0.00;0.00;;;;;;;;5036880;28;28397;-95
2023/07/18 14:32:38;;;;;;;;;0.00;0.00;;;;;;;;5035737;28;28687;-94
2023/07/18 14:35:04;;;;;;;;;0.67;0.67;;;;;;;;5036264;28;29331;-94
2023/07/18 14:37:29;;;;;;;;;0.00;0.00;;;;;;;;5048535;28;28363;-94
2023/07/18 14:39:58;;;;;;;;;0.00;0.00;;;;;;;;5052920;28;28390;-94
2023/07/18 14:42:24;;;;;;;;;0.00;0.00;;;;;;;;5031298;28;28538;-94
2023/07/18 14:44:49;;;;;;;;;0.00;0.00;;;;;;;;5034780;28;29673;-93
2023/07/18 14:47:15;;;;;;;;;0.00;0.00;;;;;;;;5038915;28;28489;-95
2023/07/18 14:49:41;;;;;;;;;0.00;0.00;;;;;;;;5040018;28;28638;-94
2023/07/18 14:52:06;;;;;;;;;1.00;1.00;;;;;;;;5036180;28;28306;-95
2023/07/18 14:54:31;;;;;;;;;0.00;0.00;;;;;;;;5047947;28;28926;-94
2023/07/18 14:56:56;;;;;;;;;1.00;1.00;;;;;;;;5052945;28;28248;-94
2023/07/18 14:59:25;;;;;;;;;0.00;0.00;;;;;;;;5035896;28;28501;-95
2023/07/18 15:07:48;;;;;;;;;0.00;0.00;;;;;;;;5241176;23;28945;-95
2023/07/18 15:10:13;;;;;;;;;0.00;0.00;;;;;;;;4999268;28;28653;-96
2023/07/18 15:12:40;;;;;;;;;0.00;0.00;;;;;;;;4977833;28;28699;-96
2023/07/18 15:15:06;;;;;;;;;1.67;1.67;;;;;;;;4997509;28;29395;-95
2023/07/18 15:17:45;;;;;;;;;0.00;0.00;;;;;;;;4995304;28;28304;-94
2023/07/18 15:20:11;;;;;;;;;0.00;0.00;;;;;;;;4982629;28;28416;-95
2023/07/18 15:22:36;;;;;;;;;0.00;0.00;;;;;;;;4978296;28;28533;-93
2023/07/18 15:25:02;;;;;;;;;0.00;0.00;;;;;;;;4976371;28;30046;-93
2023/07/18 15:27:28;;;;;;;;;0.33;0.33;;;;;;;;4990603;28;28456;-93
2023/07/18 15:29:53;;;;;;;;;0.67;0.67;;;;;;;;4998595;28;28490;-95
2023/07/18 15:32:18;;;;;;;;;1.33;1.00;;;;;;;;5014761;28;28422;-93
2023/07/18 15:34:43;;;;;;;;;0.67;0.67;;;;;;;;4996232;28;28542;-94
2023/07/18 15:37:09;;;;;;;;;0.00;0.00;;;;;;;;4995576;28;29194;-95
2023/07/18 15:39:34;;;;;;;;;0.33;0.33;;;;;;;;4996247;28;28485;-93
2023/07/18 15:41:59;;;;;;;;;1.00;1.00;;;;;;;;4997044;28;28352;-94